sensor_id;sensor_type;location;lat;lon;timestamp;P1;durP1;ratioP1;P2;durP2;ratioP2
9178;SDS011;4624;48.126;11.546;2023-01-19T00:01:32;8.10;;;6.20;;
9178;SDS011;4624;48.126;11.546;2023-01-19T00:03:59;8.63;;;6.00;;
9178;SDS011;4624;48.126;11.546;2023-01-19T00:06:27;8.17;;;5.97;;
9178;SDS011;4624;48.126;11.546;2023-01-19T00:08:55;8.17;;;6.93;;
9178;SDS011;4624;48.126;11.546;2023-01-19T00:11:22;9.33;;;6.20;;
9178;SDS011;4624;48.126;11.546;2023-01-19T00:13:49;11.70;;;6.43;;
9178;SDS011;4624;48.126;11.546;2023-01-19T00:16:17;9.37;;;7.03;;
9178;SDS011;4624;48.126;11.546;2023-01-19T00:18:47;10.50;;;6.93;;
9178;SDS011;4624;48.126;11.546;2023-01-19T00:21:15;9.07;;;6.27;;
9178;SDS011;4624;48.126;11.546;2023-01-19T00:23:44;8.83;;;6.23;;
9178;SDS011;4624;48.126;11.546;2023-01-19T00:26:12;10.23;;;5.70;;
9178;SDS011;4624;48.126;11.546;2023-01-19T00:28:40;8.17;;;6.10;;
9178;SDS011;4624;48.126;11.546;2023-01-19T00:31:07;6.50;;;5.70;;
9178;SDS011;4624;48.126;11.546;2023-01-19T00:33:34;7.77;;;5.97;;
9178;SDS011;4624;48.126;11.546;2023-01-19T00:36:01;9.47;;;6.53;;
9178;SDS011;4624;48.126;11.546;2023-01-19T00:38:28;7.97;;;5.97;;
9178;SDS011;4624;48.126;11.546;2023-01-19T00:40:56;8.37;;;6.03;;
9178;SDS011;4624;48.126;11.546;2023-01-19T00:43:23;8.30;;;6.30;;
9178;SDS011;4624;48.126;11.546;2023-01-19T00:45:48;7.40;;;5.20;;
9178;SDS011;4624;48.126;11.546;2023-01-19T00:48:15;9.23;;;6.07;;
9178;SDS011;4624;48.126;11.546;2023-01-19T00:50:42;8.93;;;6.23;;
9178;SDS011;4624;48.126;11.546;2023-01-19T00:53:08;6.37;;;5.70;;
9178;SDS011;4624;48.126;11.546;2023-01-19T00:55:35;9.17;;;6.50;;
9178;SDS011;4624;48.126;11.546;2023-01-19T00:58:03;8.50;;;6.17;;
9178;SDS011;4624;48.126;11.546;2023-01-19T01:00:31;10.23;;;6.10;;
9178;SDS011;4624;48.126;11.546;2023-01-19T01:02:58;6.43;;;5.20;;
9178;SDS011;4624;48.126;11.546;2023-01-19T01:05:25;8.47;;;6.27;;
9178;SDS011;4624;48.126;11.546;2023-01-19T01:07:52;6.43;;;5.40;;
9178;SDS011;4624;48.126;11.546;2023-01-19T01:10:19;7.50;;;4.80;;
9178;SDS011;4624;48.126;11.546;2023-01-19T01:12:48;7.17;;;5.20;;
9178;SDS011;4624;48.126;11.546;2023-01-19T01:15:17;9.10;;;5.60;;
9178;SDS011;4624;48.126;11.546;2023-01-19T01:17:45;6.97;;;5.30;;
9178;SDS011;4624;48.126;11.546;2023-01-19T01:20:15;7.47;;;4.77;;
9178;SDS011;4624;48.126;11.546;2023-01-19T01:22:44;6.30;;;4.83;;
9178;SDS011;4624;48.126;11.546;2023-01-19T01:25:12;7.33;;;5.13;;
9178;SDS011;4624;48.126;11.546;2023-01-19T01:27:39;8.00;;;4.83;;
9178;SDS011;4624;48.126;11.546;2023-01-19T01:30:07;8.00;;;5.20;;
9178;SDS011;4624;48.126;11.546;2023-01-19T01:32:36;5.67;;;5.07;;
9178;SDS011;4624;48.126;11.546;2023-01-19T01:35:04;6.43;;;5.50;;
9178;SDS011;4624;48.126;11.546;2023-01-19T01:37:33;5.63;;;4.77;;
9178;SDS011;4624;48.126;11.546;2023-01-19T01:39:59;8.97;;;5.33;;
9178;SDS011;4624;48.126;11.546;2023-01-19T01:42:27;7.17;;;5.40;;
9178;SDS011;4624;48.126;11.546;2023-01-19T01:44:56;5.33;;;4.57;;
9178;SDS011;4624;48.126;11.546;2023-01-19T01:47:25;7.43;;;5.70;;
9178;SDS011;4624;48.126;11.546;2023-01-19T01:49:58;6.40;;;5.53;;
9178;SDS011;4624;48.126;11.546;2023-01-19T01:52:30;6.73;;;4.70;;
9178;SDS011;4624;48.126;11.546;2023-01-19T01:54:57;6.63;;;5.07;;
9178;SDS011;4624;48.126;11.546;2023-01-19T01:57:25;6.47;;;5.17;;
9178;SDS011;4624;48.126;11.546;2023-01-19T01:59:54;7.27;;;5.40;;
9178;SDS011;4624;48.126;11.546;2023-01-19T02:02:24;6.70;;;5.80;;
9178;SDS011;4624;48.126;11.546;2023-01-19T02:05:14;8.50;;;5.30;;
9178;SDS011;4624;48.126;11.546;2023-01-19T02:07:45;6.63;;;5.17;;
9178;SDS011;4624;48.126;11.546;2023-01-19T02:10:33;5.40;;;4.90;;
9178;SDS011;4624;48.126;11.546;2023-01-19T02:13:18;6.67;;;5.23;;
9178;SDS011;4624;48.126;11.546;2023-01-19T02:15:47;6.27;;;5.53;;
9178;SDS011;4624;48.126;11.546;2023-01-19T02:18:14;6.10;;;4.57;;
9178;SDS011;4624;48.126;11.546;2023-01-19T02:20:44;4.83;;;4.30;;
9178;SDS011;4624;48.126;11.546;2023-01-19T02:23:17;5.63;;;4.07;;
9178;SDS011;4624;48.126;11.546;2023-01-19T02:25:50;4.97;;;4.03;;
9178;SDS011;4624;48.126;11.546;2023-01-19T02:28:18;7.53;;;4.43;;
9178;SDS011;4624;48.126;11.546;2023-01-19T02:30:45;5.47;;;4.43;;
9178;SDS011;4624;48.126;11.546;2023-01-19T02:33:12;7.03;;;4.00;;
9178;SDS011;4624;48.126;11.546;2023-01-19T02:35:39;4.40;;;3.83;;
9178;SDS011;4624;48.126;11.546;2023-01-19T02:38:07;4.33;;;3.93;;
9178;SDS011;4624;48.126;11.546;2023-01-19T02:40:35;6.47;;;3.87;;
9178;SDS011;4624;48.126;11.546;2023-01-19T02:43:04;4.17;;;3.77;;
9178;SDS011;4624;48.126;11.546;2023-01-19T02:45:33;3.67;;;3.27;;
9178;SDS011;4624;48.126;11.546;2023-01-19T02:48:02;3.60;;;3.10;;
9178;SDS011;4624;48.126;11.546;2023-01-19T02:50:35;4.87;;;3.27;;
9178;SDS011;4624;48.126;11.546;2023-01-19T02:53:09;3.40;;;2.97;;
9178;SDS011;4624;48.126;11.546;2023-01-19T02:55:47;5.90;;;3.87;;
9178;SDS011;4624;48.126;11.546;2023-01-19T02:58:22;3.50;;;2.90;;
9178;SDS011;4624;48.126;11.546;2023-01-19T03:01:01;3.43;;;2.87;;
9178;SDS011;4624;48.126;11.546;2023-01-19T03:03:38;4.60;;;3.60;;
9178;SDS011;4624;48.126;11.546;2023-01-19T03:06:17;4.00;;;3.60;;
9178;SDS011;4624;48.126;11.546;2023-01-19T03:08:57;4.33;;;3.67;;
9178;SDS011;4624;48.126;11.546;2023-01-19T03:11:33;6.03;;;3.30;;
9178;SDS011;4624;48.126;11.546;2023-01-19T03:14:06;5.97;;;3.57;;
9178;SDS011;4624;48.126;11.546;2023-01-19T03:16:38;3.80;;;3.20;;
9178;SDS011;4624;48.126;11.546;2023-01-19T03:19:08;6.77;;;3.40;;
9178;SDS011;4624;48.126;11.546;2023-01-19T03:21:38;8.67;;;3.57;;
9178;SDS011;4624;48.126;11.546;2023-01-19T03:24:10;4.83;;;4.30;;
9178;SDS011;4624;48.126;11.546;2023-01-19T03:26:48;5.47;;;3.77;;
9178;SDS011;4624;48.126;11.546;2023-01-19T03:29:21;4.43;;;3.87;;
9178;SDS011;4624;48.126;11.546;2023-01-19T03:31:52;4.87;;;3.40;;
9178;SDS011;4624;48.126;11.546;2023-01-19T03:34:21;5.83;;;4.20;;
9178;SDS011;4624;48.126;11.546;2023-01-19T03:36:49;5.00;;;4.57;;
9178;SDS011;4624;48.126;11.546;2023-01-19T03:39:20;5.57;;;4.43;;
9178;SDS011;4624;48.126;11.546;2023-01-19T03:41:49;5.37;;;4.73;;
9178;SDS011;4624;48.126;11.546;2023-01-19T03:44:19;6.83;;;4.90;;
9178;SDS011;4624;48.126;11.546;2023-01-19T03:46:48;6.10;;;4.20;;
9178;SDS011;4624;48.126;11.546;2023-01-19T03:49:15;5.13;;;4.70;;
9178;SDS011;4624;48.126;11.546;2023-01-19T03:51:43;4.90;;;4.40;;
9178;SDS011;4624;48.126;11.546;2023-01-19T03:54:10;7.00;;;4.63;;
9178;SDS011;4624;48.126;11.546;2023-01-19T03:56:37;5.00;;;4.33;;
9178;SDS011;4624;48.126;11.546;2023-01-19T03:59:04;7.83;;;4.90;;
9178;SDS011;4624;48.126;11.546;2023-01-19T04:01:32;5.20;;;4.70;;
9178;SDS011;4624;48.126;11.546;2023-01-19T04:03:59;5.60;;;5.00;;
9178;SDS011;4624;48.126;11.546;2023-01-19T04:06:26;6.73;;;5.13;;
9178;SDS011;4624;48.126;11.546;2023-01-19T04:08:53;6.97;;;5.20;;
9178;SDS011;4624;48.126;11.546;2023-01-19T04:11:19;6.97;;;5.37;;
9178;SDS011;4624;48.126;11.546;2023-01-19T04:13:46;8.00;;;5.40;;
9178;SDS011;4624;48.126;11.546;2023-01-19T04:16:14;7.33;;;5.67;;
9178;SDS011;4624;48.126;11.546;2023-01-19T04:18:45;7.30;;;4.80;;
9178;SDS011;4624;48.126;11.546;2023-01-19T04:21:12;6.27;;;4.93;;
9178;SDS011;4624;48.126;11.546;2023-01-19T04:23:39;5.47;;;4.93;;
9178;SDS011;4624;48.126;11.546;2023-01-19T04:26:06;7.03;;;5.87;;
9178;SDS011;4624;48.126;11.546;2023-01-19T04:28:34;7.33;;;6.00;;
9178;SDS011;4624;48.126;11.546;2023-01-19T04:31:02;6.70;;;5.77;;
9178;SDS011;4624;48.126;11.546;2023-01-19T04:33:29;5.33;;;4.83;;
9178;SDS011;4624;48.126;11.546;2023-01-19T04:35:57;8.47;;;5.53;;
9178;SDS011;4624;48.126;11.546;2023-01-19T04:38:24;6.30;;;5.50;;
9178;SDS011;4624;48.126;11.546;2023-01-19T04:40:52;6.63;;;5.43;;
9178;SDS011;4624;48.126;11.546;2023-01-19T04:43:20;6.43;;;5.40;;
9178;SDS011;4624;48.126;11.546;2023-01-19T04:45:47;7.07;;;5.73;;
9178;SDS011;4624;48.126;11.546;2023-01-19T04:48:15;7.83;;;6.30;;
9178;SDS011;4624;48.126;11.546;2023-01-19T04:50:43;6.97;;;5.97;;
9178;SDS011;4624;48.126;11.546;2023-01-19T04:53:11;7.97;;;6.23;;
9178;SDS011;4624;48.126;11.546;2023-01-19T04:55:40;8.77;;;6.40;;
9178;SDS011;4624;48.126;11.546;2023-01-19T04:58:07;7.37;;;6.53;;
9178;SDS011;4624;48.126;11.546;2023-01-19T05:00:34;6.03;;;5.37;;
9178;SDS011;4624;48.126;11.546;2023-01-19T05:03:01;8.77;;;6.50;;
9178;SDS011;4624;48.126;11.546;2023-01-19T05:05:27;9.43;;;6.57;;
9178;SDS011;4624;48.126;11.546;2023-01-19T05:07:54;10.03;;;6.17;;
9178;SDS011;4624;48.126;11.546;2023-01-19T05:10:22;7.07;;;6.17;;
9178;SDS011;4624;48.126;11.546;2023-01-19T05:12:49;6.40;;;5.80;;
9178;SDS011;4624;48.126;11.546;2023-01-19T05:15:16;7.87;;;6.57;;
9178;SDS011;4624;48.126;11.546;2023-01-19T05:17:43;8.40;;;6.60;;
9178;SDS011;4624;48.126;11.546;2023-01-19T05:20:10;7.73;;;6.93;;
9178;SDS011;4624;48.126;11.546;2023-01-19T05:22:38;8.87;;;6.53;;
9178;SDS011;4624;48.126;11.546;2023-01-19T05:25:05;8.50;;;6.07;;
9178;SDS011;4624;48.126;11.546;2023-01-19T05:27:35;8.40;;;6.70;;
9178;SDS011;4624;48.126;11.546;2023-01-19T05:30:02;8.13;;;6.17;;
9178;SDS011;4624;48.126;11.546;2023-01-19T05:32:30;9.27;;;6.53;;
9178;SDS011;4624;48.126;11.546;2023-01-19T05:34:56;6.87;;;5.87;;
9178;SDS011;4624;48.126;11.546;2023-01-19T05:37:23;11.13;;;7.07;;
9178;SDS011;4624;48.126;11.546;2023-01-19T05:39:50;7.97;;;6.50;;
9178;SDS011;4624;48.126;11.546;2023-01-19T05:42:17;10.57;;;7.43;;
9178;SDS011;4624;48.126;11.546;2023-01-19T05:44:45;10.23;;;7.07;;
9178;SDS011;4624;48.126;11.546;2023-01-19T05:47:12;8.50;;;6.50;;
9178;SDS011;4624;48.126;11.546;2023-01-19T05:49:39;8.17;;;6.27;;
9178;SDS011;4624;48.126;11.546;2023-01-19T05:52:06;7.73;;;6.80;;
9178;SDS011;4624;48.126;11.546;2023-01-19T05:54:32;8.97;;;7.07;;
9178;SDS011;4624;48.126;11.546;2023-01-19T05:56:59;9.20;;;7.27;;
9178;SDS011;4624;48.126;11.546;2023-01-19T05:59:27;10.40;;;6.80;;
9178;SDS011;4624;48.126;11.546;2023-01-19T06:01:55;8.97;;;7.40;;
9178;SDS011;4624;48.126;11.546;2023-01-19T06:04:24;8.30;;;6.70;;
9178;SDS011;4624;48.126;11.546;2023-01-19T06:06:51;8.37;;;7.00;;
9178;SDS011;4624;48.126;11.546;2023-01-19T06:09:17;10.03;;;7.37;;
9178;SDS011;4624;48.126;11.546;2023-01-19T06:11:44;9.97;;;8.20;;
9178;SDS011;4624;48.126;11.546;2023-01-19T06:14:11;8.13;;;7.10;;
9178;SDS011;4624;48.126;11.546;2023-01-19T06:16:38;10.33;;;7.50;;
9178;SDS011;4624;48.126;11.546;2023-01-19T06:19:06;11.53;;;8.10;;
9178;SDS011;4624;48.126;11.546;2023-01-19T06:21:33;8.97;;;7.07;;
9178;SDS011;4624;48.126;11.546;2023-01-19T06:24:00;9.60;;;7.50;;
9178;SDS011;4624;48.126;11.546;2023-01-19T06:26:27;10.50;;;7.73;;
9178;SDS011;4624;48.126;11.546;2023-01-19T06:28:54;10.20;;;7.30;;
9178;SDS011;4624;48.126;11.546;2023-01-19T06:31:21;11.90;;;7.90;;
9178;SDS011;4624;48.126;11.546;2023-01-19T06:33:48;12.20;;;8.27;;
9178;SDS011;4624;48.126;11.546;2023-01-19T06:36:16;9.97;;;7.50;;
9178;SDS011;4624;48.126;11.546;2023-01-19T06:38:43;10.50;;;7.77;;
9178;SDS011;4624;48.126;11.546;2023-01-19T06:41:10;10.43;;;7.70;;
9178;SDS011;4624;48.126;11.546;2023-01-19T06:43:37;9.53;;;7.80;;
9178;SDS011;4624;48.126;11.546;2023-01-19T06:46:03;9.20;;;8.03;;
9178;SDS011;4624;48.126;11.546;2023-01-19T06:48:30;10.53;;;7.97;;
9178;SDS011;4624;48.126;11.546;2023-01-19T06:50:57;10.50;;;8.00;;
9178;SDS011;4624;48.126;11.546;2023-01-19T06:53:25;9.60;;;7.67;;
9178;SDS011;4624;48.126;11.546;2023-01-19T06:55:56;10.00;;;7.67;;
9178;SDS011;4624;48.126;11.546;2023-01-19T06:58:24;9.73;;;7.53;;
9178;SDS011;4624;48.126;11.546;2023-01-19T07:00:51;8.43;;;7.23;;
9178;SDS011;4624;48.126;11.546;2023-01-19T07:03:18;9.50;;;7.13;;
9178;SDS011;4624;48.126;11.546;2023-01-19T07:05:49;10.70;;;6.63;;
9178;SDS011;4624;48.126;11.546;2023-01-19T07:08:17;9.23;;;7.80;;
9178;SDS011;4624;48.126;11.546;2023-01-19T07:10:45;9.60;;;7.30;;
9178;SDS011;4624;48.126;11.546;2023-01-19T07:13:11;11.40;;;8.07;;
9178;SDS011;4624;48.126;11.546;2023-01-19T07:15:38;10.73;;;7.67;;
9178;SDS011;4624;48.126;11.546;2023-01-19T07:18:05;8.67;;;7.30;;
9178;SDS011;4624;48.126;11.546;2023-01-19T07:20:33;10.07;;;7.77;;
9178;SDS011;4624;48.126;11.546;2023-01-19T07:23:01;8.83;;;7.20;;
9178;SDS011;4624;48.126;11.546;2023-01-19T07:25:28;7.80;;;6.40;;
9178;SDS011;4624;48.126;11.546;2023-01-19T07:27:57;10.93;;;7.80;;
9178;SDS011;4624;48.126;11.546;2023-01-19T07:30:24;8.30;;;6.37;;
9178;SDS011;4624;48.126;11.546;2023-01-19T07:32:53;10.20;;;6.77;;
9178;SDS011;4624;48.126;11.546;2023-01-19T07:35:20;9.53;;;7.63;;
9178;SDS011;4624;48.126;11.546;2023-01-19T07:37:47;10.50;;;7.20;;
9178;SDS011;4624;48.126;11.546;2023-01-19T07:40:14;10.10;;;7.57;;
9178;SDS011;4624;48.126;11.546;2023-01-19T07:42:44;8.77;;;7.43;;
9178;SDS011;4624;48.126;11.546;2023-01-19T07:45:14;7.90;;;6.60;;
9178;SDS011;4624;48.126;11.546;2023-01-19T07:47:41;9.57;;;6.87;;
9178;SDS011;4624;48.126;11.546;2023-01-19T07:50:09;9.53;;;7.20;;
9178;SDS011;4624;48.126;11.546;2023-01-19T07:52:37;9.37;;;7.53;;
9178;SDS011;4624;48.126;11.546;2023-01-19T07:55:04;10.63;;;6.67;;
9178;SDS011;4624;48.126;11.546;2023-01-19T07:57:31;9.90;;;6.80;;
9178;SDS011;4624;48.126;11.546;2023-01-19T07:59:58;9.37;;;7.77;;
9178;SDS011;4624;48.126;11.546;2023-01-19T08:02:26;10.43;;;7.60;;
9178;SDS011;4624;48.126;11.546;2023-01-19T08:04:54;8.13;;;7.00;;
9178;SDS011;4624;48.126;11.546;2023-01-19T08:07:21;10.27;;;7.20;;
9178;SDS011;4624;48.126;11.546;2023-01-19T08:09:47;8.17;;;6.77;;
9178;SDS011;4624;48.126;11.546;2023-01-19T08:12:14;9.60;;;6.67;;
9178;SDS011;4624;48.126;11.546;2023-01-19T08:14:41;12.97;;;7.73;;
9178;SDS011;4624;48.126;11.546;2023-01-19T08:17:09;7.70;;;6.50;;
9178;SDS011;4624;48.126;11.546;2023-01-19T08:19:39;7.87;;;6.37;;
9178;SDS011;4624;48.126;11.546;2023-01-19T08:22:07;9.80;;;6.83;;
9178;SDS011;4624;48.126;11.546;2023-01-19T08:24:34;8.40;;;6.77;;
9178;SDS011;4624;48.126;11.546;2023-01-19T08:27:01;10.47;;;6.60;;
9178;SDS011;4624;48.126;11.546;2023-01-19T08:29:29;8.00;;;6.50;;
9178;SDS011;4624;48.126;11.546;2023-01-19T08:31:57;9.60;;;6.77;;
9178;SDS011;4624;48.126;11.546;2023-01-19T08:34:26;7.30;;;5.93;;
9178;SDS011;4624;48.126;11.546;2023-01-19T08:36:56;11.13;;;6.33;;
9178;SDS011;4624;48.126;11.546;2023-01-19T08:39:23;7.40;;;6.10;;
9178;SDS011;4624;48.126;11.546;2023-01-19T08:41:51;7.10;;;6.40;;
9178;SDS011;4624;48.126;11.546;2023-01-19T08:44:18;7.50;;;6.37;;
9178;SDS011;4624;48.126;11.546;2023-01-19T08:46:45;7.87;;;6.43;;
9178;SDS011;4624;48.126;11.546;2023-01-19T08:49:12;8.83;;;6.27;;
9178;SDS011;4624;48.126;11.546;2023-01-19T08:51:39;8.00;;;6.20;;
9178;SDS011;4624;48.126;11.546;2023-01-19T08:54:07;7.77;;;6.03;;
9178;SDS011;4624;48.126;11.546;2023-01-19T08:56:34;8.90;;;6.43;;
9178;SDS011;4624;48.126;11.546;2023-01-19T08:59:01;7.20;;;6.03;;
9178;SDS011;4624;48.126;11.546;2023-01-19T09:01:28;6.90;;;6.20;;
9178;SDS011;4624;48.126;11.546;2023-01-19T09:03:54;7.37;;;5.80;;
9178;SDS011;4624;48.126;11.546;2023-01-19T09:06:21;8.93;;;6.47;;
9178;SDS011;4624;48.126;11.546;2023-01-19T09:08:49;7.43;;;5.83;;
9178;SDS011;4624;48.126;11.546;2023-01-19T09:11:17;8.13;;;6.10;;
9178;SDS011;4624;48.126;11.546;2023-01-19T09:13:44;6.00;;;5.40;;
9178;SDS011;4624;48.126;11.546;2023-01-19T09:16:11;7.57;;;5.90;;
9178;SDS011;4624;48.126;11.546;2023-01-19T09:18:39;6.90;;;5.93;;
9178;SDS011;4624;48.126;11.546;2023-01-19T09:21:06;8.07;;;5.83;;
9178;SDS011;4624;48.126;11.546;2023-01-19T09:23:34;9.23;;;6.17;;
9178;SDS011;4624;48.126;11.546;2023-01-19T09:26:01;6.83;;;5.70;;
9178;SDS011;4624;48.126;11.546;2023-01-19T09:28:31;7.33;;;6.27;;
9178;SDS011;4624;48.126;11.546;2023-01-19T09:30:58;9.90;;;5.93;;
9178;SDS011;4624;48.126;11.546;2023-01-19T09:33:28;7.20;;;5.93;;
9178;SDS011;4624;48.126;11.546;2023-01-19T09:35:55;8.70;;;5.97;;
9178;SDS011;4624;48.126;11.546;2023-01-19T09:38:22;7.77;;;5.60;;
9178;SDS011;4624;48.126;11.546;2023-01-19T09:40:50;7.80;;;6.43;;
9178;SDS011;4624;48.126;11.546;2023-01-19T09:43:20;6.50;;;5.47;;
9178;SDS011;4624;48.126;11.546;2023-01-19T09:46:01;6.93;;;5.97;;
9178;SDS011;4624;48.126;11.546;2023-01-19T09:48:38;6.80;;;5.60;;
9178;SDS011;4624;48.126;11.546;2023-01-19T09:51:10;9.07;;;5.07;;
9178;SDS011;4624;48.126;11.546;2023-01-19T09:53:54;7.47;;;6.10;;
9178;SDS011;4624;48.126;11.546;2023-01-19T09:56:28;7.73;;;5.93;;
9178;SDS011;4624;48.126;11.546;2023-01-19T09:58:56;6.03;;;5.43;;
9178;SDS011;4624;48.126;11.546;2023-01-19T10:01:35;6.70;;;6.10;;
9178;SDS011;4624;48.126;11.546;2023-01-19T10:04:24;9.20;;;5.33;;
9178;SDS011;4624;48.126;11.546;2023-01-19T10:06:54;7.13;;;5.30;;
9178;SDS011;4624;48.126;11.546;2023-01-19T10:09:56;7.50;;;5.30;;
9178;SDS011;4624;48.126;11.546;2023-01-19T10:12:48;6.63;;;5.00;;
9178;SDS011;4624;48.126;11.546;2023-01-19T10:15:27;5.97;;;5.27;;
9178;SDS011;4624;48.126;11.546;2023-01-19T10:18:09;6.37;;;4.90;;
9178;SDS011;4624;48.126;11.546;2023-01-19T10:20:39;6.23;;;4.87;;
9178;SDS011;4624;48.126;11.546;2023-01-19T10:23:17;6.00;;;4.30;;
9178;SDS011;4624;48.126;11.546;2023-01-19T10:26:00;5.47;;;4.97;;
9178;SDS011;4624;48.126;11.546;2023-01-19T10:28:33;5.73;;;4.33;;
9178;SDS011;4624;48.126;11.546;2023-01-19T10:31:04;4.73;;;4.27;;
9178;SDS011;4624;48.126;11.546;2023-01-19T10:33:33;6.00;;;5.20;;
9178;SDS011;4624;48.126;11.546;2023-01-19T10:36:04;5.50;;;4.77;;
9178;SDS011;4624;48.126;11.546;2023-01-19T10:38:40;4.67;;;4.03;;
9178;SDS011;4624;48.126;11.546;2023-01-19T10:41:10;4.83;;;4.00;;
9178;SDS011;4624;48.126;11.546;2023-01-19T10:43:41;4.60;;;3.93;;
9178;SDS011;4624;48.126;11.546;2023-01-19T10:46:18;3.67;;;3.37;;
9178;SDS011;4624;48.126;11.546;2023-01-19T10:48:48;4.13;;;3.80;;
9178;SDS011;4624;48.126;11.546;2023-01-19T10:51:16;4.50;;;3.50;;
9178;SDS011;4624;48.126;11.546;2023-01-19T10:53:51;5.60;;;4.10;;
9178;SDS011;4624;48.126;11.546;2023-01-19T10:56:23;5.03;;;3.60;;
9178;SDS011;4624;48.126;11.546;2023-01-19T10:58:52;5.03;;;4.00;;
9178;SDS011;4624;48.126;11.546;2023-01-19T11:01:21;4.43;;;3.50;;
9178;SDS011;4624;48.126;11.546;2023-01-19T11:03:49;4.33;;;3.60;;
9178;SDS011;4624;48.126;11.546;2023-01-19T11:06:19;5.17;;;4.67;;
9178;SDS011;4624;48.126;11.546;2023-01-19T11:08:51;4.63;;;3.80;;
9178;SDS011;4624;48.126;11.546;2023-01-19T11:11:34;4.27;;;3.33;;
9178;SDS011;4624;48.126;11.546;2023-01-19T11:14:08;3.73;;;3.27;;
9178;SDS011;4624;48.126;11.546;2023-01-19T11:16:39;4.10;;;3.70;;
9178;SDS011;4624;48.126;11.546;2023-01-19T11:19:14;3.97;;;3.23;;
9178;SDS011;4624;48.126;11.546;2023-01-19T11:21:49;3.47;;;3.17;;
9178;SDS011;4624;48.126;11.546;2023-01-19T11:24:16;3.40;;;2.77;;
9178;SDS011;4624;48.126;11.546;2023-01-19T11:26:43;7.20;;;3.13;;
9178;SDS011;4624;48.126;11.546;2023-01-19T11:29:14;3.00;;;2.73;;
9178;SDS011;4624;48.126;11.546;2023-01-19T11:31:46;4.10;;;2.77;;
9178;SDS011;4624;48.126;11.546;2023-01-19T11:34:25;2.67;;;2.27;;
9178;SDS011;4624;48.126;11.546;2023-01-19T11:36:57;3.57;;;2.63;;
9178;SDS011;4624;48.126;11.546;2023-01-19T11:39:26;4.83;;;2.80;;
9178;SDS011;4624;48.126;11.546;2023-01-19T11:41:55;3.73;;;2.50;;
9178;SDS011;4624;48.126;11.546;2023-01-19T11:44:24;3.30;;;2.90;;
9178;SDS011;4624;48.126;11.546;2023-01-19T11:46:56;5.10;;;3.00;;
9178;SDS011;4624;48.126;11.546;2023-01-19T11:49:27;3.57;;;2.77;;
9178;SDS011;4624;48.126;11.546;2023-01-19T11:52:03;2.80;;;2.40;;
9178;SDS011;4624;48.126;11.546;2023-01-19T11:54:39;3.07;;;2.37;;
9178;SDS011;4624;48.126;11.546;2023-01-19T11:57:12;2.43;;;2.23;;
9178;SDS011;4624;48.126;11.546;2023-01-19T11:59:41;3.57;;;2.40;;
9178;SDS011;4624;48.126;11.546;2023-01-19T12:02:14;3.10;;;2.50;;
9178;SDS011;4624;48.126;11.546;2023-01-19T12:04:47;2.30;;;2.10;;
9178;SDS011;4624;48.126;11.546;2023-01-19T12:07:16;2.57;;;2.23;;
9178;SDS011;4624;48.126;11.546;2023-01-19T12:09:50;3.53;;;2.40;;
9178;SDS011;4624;48.126;11.546;2023-01-19T12:12:23;2.30;;;2.00;;
9178;SDS011;4624;48.126;11.546;2023-01-19T12:14:54;2.77;;;1.87;;
9178;SDS011;4624;48.126;11.546;2023-01-19T12:17:28;2.20;;;1.83;;
9178;SDS011;4624;48.126;11.546;2023-01-19T12:19:58;4.00;;;2.20;;
9178;SDS011;4624;48.126;11.546;2023-01-19T12:22:33;2.57;;;2.10;;
9178;SDS011;4624;48.126;11.546;2023-01-19T12:25:09;2.97;;;2.07;;
9178;SDS011;4624;48.126;11.546;2023-01-19T12:27:41;4.53;;;2.57;;
9178;SDS011;4624;48.126;11.546;2023-01-19T12:30:10;3.00;;;2.30;;
9178;SDS011;4624;48.126;11.546;2023-01-19T12:32:44;3.23;;;2.30;;
9178;SDS011;4624;48.126;11.546;2023-01-19T12:41:17;3.77;;;2.50;;
9178;SDS011;4624;48.126;11.546;2023-01-19T12:46:48;3.73;;;3.27;;
9178;SDS011;4624;48.126;11.546;2023-01-19T12:49:24;5.60;;;3.00;;
9178;SDS011;4624;48.126;11.546;2023-01-19T12:52:08;5.43;;;3.17;;
9178;SDS011;4624;48.126;11.546;2023-01-19T12:54:39;4.27;;;2.57;;
9178;SDS011;4624;48.126;11.546;2023-01-19T12:57:14;4.33;;;2.93;;
9178;SDS011;4624;48.126;11.546;2023-01-19T12:59:45;3.57;;;2.70;;
9178;SDS011;4624;48.126;11.546;2023-01-19T13:02:29;3.30;;;2.80;;
9178;SDS011;4624;48.126;11.546;2023-01-19T13:05:23;4.10;;;2.67;;
9178;SDS011;4624;48.126;11.546;2023-01-19T13:08:14;3.47;;;2.67;;
9178;SDS011;4624;48.126;11.546;2023-01-19T13:13:44;3.93;;;2.23;;
9178;SDS011;4624;48.126;11.546;2023-01-19T13:19:50;3.47;;;2.43;;
9178;SDS011;4624;48.126;11.546;2023-01-19T13:25:57;2.83;;;1.97;;
9178;SDS011;4624;48.126;11.546;2023-01-19T13:28:32;2.50;;;2.30;;
9178;SDS011;4624;48.126;11.546;2023-01-19T13:31:03;4.67;;;2.63;;
9178;SDS011;4624;48.126;11.546;2023-01-19T13:33:35;4.40;;;2.40;;
9178;SDS011;4624;48.126;11.546;2023-01-19T13:36:14;2.87;;;2.10;;
9178;SDS011;4624;48.126;11.546;2023-01-19T13:38:47;4.33;;;2.90;;
9178;SDS011;4624;48.126;11.546;2023-01-19T13:41:18;3.90;;;2.63;;
9178;SDS011;4624;48.126;11.546;2023-01-19T13:43:48;3.47;;;2.67;;
9178;SDS011;4624;48.126;11.546;2023-01-19T13:46:20;3.53;;;2.60;;
9178;SDS011;4624;48.126;11.546;2023-01-19T13:48:52;8.37;;;2.80;;
9178;SDS011;4624;48.126;11.546;2023-01-19T13:51:21;3.13;;;2.50;;
9178;SDS011;4624;48.126;11.546;2023-01-19T13:53:52;6.37;;;3.37;;
9178;SDS011;4624;48.126;11.546;2023-01-19T13:56:21;3.63;;;2.70;;
9178;SDS011;4624;48.126;11.546;2023-01-19T13:58:59;4.40;;;2.73;;
9178;SDS011;4624;48.126;11.546;2023-01-19T14:01:29;3.33;;;2.63;;
9178;SDS011;4624;48.126;11.546;2023-01-19T14:03:57;6.67;;;2.97;;
9178;SDS011;4624;48.126;11.546;2023-01-19T14:06:30;4.60;;;3.13;;
9178;SDS011;4624;48.126;11.546;2023-01-19T14:09:04;3.67;;;2.90;;
9178;SDS011;4624;48.126;11.546;2023-01-19T14:11:33;3.40;;;2.23;;
9178;SDS011;4624;48.126;11.546;2023-01-19T14:14:00;2.17;;;1.90;;
9178;SDS011;4624;48.126;11.546;2023-01-19T14:16:27;2.40;;;1.90;;
9178;SDS011;4624;48.126;11.546;2023-01-19T14:19:00;2.83;;;1.60;;
9178;SDS011;4624;48.126;11.546;2023-01-19T14:21:36;4.67;;;1.70;;
9178;SDS011;4624;48.126;11.546;2023-01-19T14:24:07;3.73;;;2.27;;
9178;SDS011;4624;48.126;11.546;2023-01-19T14:26:40;2.93;;;1.60;;
9178;SDS011;4624;48.126;11.546;2023-01-19T14:29:17;2.37;;;1.27;;
9178;SDS011;4624;48.126;11.546;2023-01-19T14:31:48;2.83;;;1.73;;
9178;SDS011;4624;48.126;11.546;2023-01-19T14:34:30;1.83;;;1.57;;
9178;SDS011;4624;48.126;11.546;2023-01-19T14:36:58;3.77;;;2.20;;
9178;SDS011;4624;48.126;11.546;2023-01-19T14:39:27;3.43;;;2.13;;
9178;SDS011;4624;48.126;11.546;2023-01-19T14:41:57;3.67;;;2.13;;
9178;SDS011;4624;48.126;11.546;2023-01-19T14:44:27;5.53;;;2.10;;
9178;SDS011;4624;48.126;11.546;2023-01-19T14:46:57;2.47;;;2.10;;
9178;SDS011;4624;48.126;11.546;2023-01-19T14:49:27;6.00;;;2.10;;
9178;SDS011;4624;48.126;11.546;2023-01-19T14:51:59;3.20;;;2.33;;
9178;SDS011;4624;48.126;11.546;2023-01-19T14:54:30;5.80;;;2.27;;
9178;SDS011;4624;48.126;11.546;2023-01-19T14:57:01;4.93;;;3.30;;
9178;SDS011;4624;48.126;11.546;2023-01-19T14:59:28;3.93;;;2.60;;
9178;SDS011;4624;48.126;11.546;2023-01-19T15:01:55;2.27;;;2.00;;
9178;SDS011;4624;48.126;11.546;2023-01-19T15:04:23;3.87;;;2.47;;
9178;SDS011;4624;48.126;11.546;2023-01-19T15:06:50;4.60;;;2.57;;
9178;SDS011;4624;48.126;11.546;2023-01-19T15:09:17;5.27;;;2.97;;
9178;SDS011;4624;48.126;11.546;2023-01-19T15:11:44;4.37;;;2.50;;
9178;SDS011;4624;48.126;11.546;2023-01-19T15:14:15;3.87;;;2.67;;
9178;SDS011;4624;48.126;11.546;2023-01-19T15:16:43;5.40;;;2.70;;
9178;SDS011;4624;48.126;11.546;2023-01-19T15:19:10;3.03;;;2.73;;
9178;SDS011;4624;48.126;11.546;2023-01-19T15:21:38;2.43;;;2.23;;
9178;SDS011;4624;48.126;11.546;2023-01-19T15:24:06;2.03;;;1.83;;
9178;SDS011;4624;48.126;11.546;2023-01-19T15:26:34;3.70;;;2.17;;
9178;SDS011;4624;48.126;11.546;2023-01-19T15:29:01;4.37;;;2.53;;
9178;SDS011;4624;48.126;11.546;2023-01-19T15:31:29;3.07;;;2.77;;
9178;SDS011;4624;48.126;11.546;2023-01-19T15:33:56;5.20;;;3.03;;
9178;SDS011;4624;48.126;11.546;2023-01-19T15:36:23;4.00;;;2.03;;